sensor_id;sensor_type;location;lat;lon;timestamp;P1;durP1;ratioP1;P2;durP2;ratioP2
68803;SDS011;55787;52.678;13.314;2023-09-19T00:01:43;9.30;;;2.92;;
68803;SDS011;55787;52.678;13.314;2023-09-19T00:04:12;9.65;;;2.60;;
68803;SDS011;55787;52.678;13.314;2023-09-19T00:06:39;8.13;;;2.80;;
68803;SDS011;55787;52.678;13.314;2023-09-19T00:09:05;8.52;;;2.90;;
68803;SDS011;55787;52.678;13.314;2023-09-19T00:11:37;9.80;;;3.03;;
68803;SDS011;55787;52.678;13.314;2023-09-19T00:14:04;8.98;;;2.90;;
68803;SDS011;55787;52.678;13.314;2023-09-19T00:16:35;9.80;;;3.42;;
68803;SDS011;55787;52.678;13.314;2023-09-19T00:19:02;12.07;;;3.38;;
68803;SDS011;55787;52.678;13.314;2023-09-19T00:21:31;8.25;;;2.78;;
68803;SDS011;55787;52.678;13.314;2023-09-19T00:23:58;10.48;;;3.10;;
68803;SDS011;55787;52.678;13.314;2023-09-19T00:26:24;9.93;;;2.95;;
68803;SDS011;55787;52.678;13.314;2023-09-19T00:28:54;10.02;;;3.15;;
68803;SDS011;55787;52.678;13.314;2023-09-19T00:31:20;9.82;;;2.72;;
68803;SDS011;55787;52.678;13.314;2023-09-19T00:33:51;10.90;;;3.40;;
68803;SDS011;55787;52.678;13.314;2023-09-19T00:36:19;9.98;;;3.00;;
68803;SDS011;55787;52.678;13.314;2023-09-19T00:38:46;7.65;;;2.90;;
68803;SDS011;55787;52.678;13.314;2023-09-19T00:41:13;13.75;;;2.80;;
68803;SDS011;55787;52.678;13.314;2023-09-19T00:43:39;9.27;;;2.58;;
68803;SDS011;55787;52.678;13.314;2023-09-19T00:46:06;9.25;;;2.58;;
68803;SDS011;55787;52.678;13.314;2023-09-19T00:48:37;8.43;;;2.30;;
68803;SDS011;55787;52.678;13.314;2023-09-19T00:51:07;7.55;;;2.97;;
68803;SDS011;55787;52.678;13.314;2023-09-19T00:53:34;7.47;;;2.50;;
68803;SDS011;55787;52.678;13.314;2023-09-19T00:56:01;9.27;;;2.50;;
68803;SDS011;55787;52.678;13.314;2023-09-19T00:58:29;9.38;;;2.60;;
68803;SDS011;55787;52.678;13.314;2023-09-19T01:01:00;10.15;;;2.30;;
68803;SDS011;55787;52.678;13.314;2023-09-19T01:03:27;7.90;;;2.35;;
68803;SDS011;55787;52.678;13.314;2023-09-19T01:05:54;8.43;;;2.35;;
68803;SDS011;55787;52.678;13.314;2023-09-19T01:08:21;7.32;;;2.05;;
68803;SDS011;55787;52.678;13.314;2023-09-19T01:10:55;8.07;;;1.98;;
68803;SDS011;55787;52.678;13.314;2023-09-19T01:13:43;8.85;;;2.10;;
68803;SDS011;55787;52.678;13.314;2023-09-19T01:22:00;9.05;;;2.10;;
68803;SDS011;55787;52.678;13.314;2023-09-19T01:30:25;6.88;;;1.83;;
68803;SDS011;55787;52.678;13.314;2023-09-19T01:32:55;5.90;;;1.65;;
68803;SDS011;55787;52.678;13.314;2023-09-19T01:35:23;7.07;;;2.00;;
68803;SDS011;55787;52.678;13.314;2023-09-19T01:37:50;7.22;;;2.00;;
68803;SDS011;55787;52.678;13.314;2023-09-19T01:40:17;9.20;;;2.10;;
68803;SDS011;55787;52.678;13.314;2023-09-19T01:43:09;10.32;;;2.00;;
68803;SDS011;55787;52.678;13.314;2023-09-19T01:45:43;9.15;;;1.98;;
68803;SDS011;55787;52.678;13.314;2023-09-19T01:51:14;7.32;;;1.73;;
68803;SDS011;55787;52.678;13.314;2023-09-19T01:53:58;7.05;;;1.90;;
68803;SDS011;55787;52.678;13.314;2023-09-19T01:56:30;8.70;;;1.80;;
68803;SDS011;55787;52.678;13.314;2023-09-19T01:59:07;7.90;;;2.30;;
68803;SDS011;55787;52.678;13.314;2023-09-19T02:01:37;9.90;;;1.80;;
68803;SDS011;55787;52.678;13.314;2023-09-19T02:04:05;9.38;;;2.22;;
68803;SDS011;55787;52.678;13.314;2023-09-19T02:06:33;7.72;;;1.65;;
68803;SDS011;55787;52.678;13.314;2023-09-19T02:09:03;7.68;;;1.98;;
68803;SDS011;55787;52.678;13.314;2023-09-19T02:11:30;7.80;;;1.70;;
68803;SDS011;55787;52.678;13.314;2023-09-19T02:13:56;7.50;;;2.22;;
68803;SDS011;55787;52.678;13.314;2023-09-19T02:16:23;8.40;;;2.40;;
68803;SDS011;55787;52.678;13.314;2023-09-19T02:18:50;6.82;;;1.90;;
68803;SDS011;55787;52.678;13.314;2023-09-19T02:21:17;7.80;;;1.95;;
68803;SDS011;55787;52.678;13.314;2023-09-19T02:23:44;6.40;;;2.00;;
68803;SDS011;55787;52.678;13.314;2023-09-19T02:26:13;6.93;;;2.10;;
68803;SDS011;55787;52.678;13.314;2023-09-19T02:28:40;9.32;;;2.00;;
68803;SDS011;55787;52.678;13.314;2023-09-19T02:31:07;11.20;;;2.20;;
68803;SDS011;55787;52.678;13.314;2023-09-19T02:33:33;7.80;;;2.28;;
68803;SDS011;55787;52.678;13.314;2023-09-19T02:36:01;8.75;;;2.17;;
68803;SDS011;55787;52.678;13.314;2023-09-19T02:38:30;6.75;;;1.95;;
68803;SDS011;55787;52.678;13.314;2023-09-19T02:40:57;7.10;;;2.00;;
68803;SDS011;55787;52.678;13.314;2023-09-19T02:43:23;8.27;;;2.00;;
68803;SDS011;55787;52.678;13.314;2023-09-19T02:45:50;9.02;;;1.98;;
68803;SDS011;55787;52.678;13.314;2023-09-19T02:48:19;8.55;;;2.60;;
68803;SDS011;55787;52.678;13.314;2023-09-19T02:50:49;8.57;;;2.00;;
68803;SDS011;55787;52.678;13.314;2023-09-19T02:53:16;9.15;;;2.10;;
68803;SDS011;55787;52.678;13.314;2023-09-19T02:55:42;6.43;;;1.75;;
68803;SDS011;55787;52.678;13.314;2023-09-19T02:58:09;7.70;;;2.15;;
68803;SDS011;55787;52.678;13.314;2023-09-19T03:00:37;7.90;;;2.30;;
68803;SDS011;55787;52.678;13.314;2023-09-19T03:03:04;8.95;;;2.15;;
68803;SDS011;55787;52.678;13.314;2023-09-19T03:05:32;8.68;;;1.90;;
68803;SDS011;55787;52.678;13.314;2023-09-19T03:07:59;8.05;;;2.17;;
68803;SDS011;55787;52.678;13.314;2023-09-19T03:10:29;8.48;;;2.05;;
68803;SDS011;55787;52.678;13.314;2023-09-19T03:12:57;7.63;;;2.05;;
68803;SDS011;55787;52.678;13.314;2023-09-19T03:15:26;9.18;;;2.28;;
68803;SDS011;55787;52.678;13.314;2023-09-19T03:17:53;7.82;;;2.20;;
68803;SDS011;55787;52.678;13.314;2023-09-19T03:20:20;8.02;;;2.10;;
68803;SDS011;55787;52.678;13.314;2023-09-19T03:22:47;8.20;;;2.08;;
68803;SDS011;55787;52.678;13.314;2023-09-19T03:25:14;7.95;;;2.35;;
68803;SDS011;55787;52.678;13.314;2023-09-19T03:27:42;9.23;;;2.35;;
68803;SDS011;55787;52.678;13.314;2023-09-19T03:30:09;9.27;;;2.42;;
68803;SDS011;55787;52.678;13.314;2023-09-19T03:32:45;7.60;;;2.20;;
68803;SDS011;55787;52.678;13.314;2023-09-19T03:35:13;8.85;;;2.70;;
68803;SDS011;55787;52.678;13.314;2023-09-19T03:37:41;8.15;;;2.30;;
68803;SDS011;55787;52.678;13.314;2023-09-19T03:40:11;9.40;;;2.30;;
68803;SDS011;55787;52.678;13.314;2023-09-19T03:42:38;8.55;;;2.33;;
68803;SDS011;55787;52.678;13.314;2023-09-19T03:45:06;7.45;;;2.25;;
68803;SDS011;55787;52.678;13.314;2023-09-19T03:47:38;9.45;;;2.05;;
68803;SDS011;55787;52.678;13.314;2023-09-19T03:50:05;8.38;;;1.98;;
68803;SDS011;55787;52.678;13.314;2023-09-19T03:52:34;8.68;;;2.05;;
68803;SDS011;55787;52.678;13.314;2023-09-19T03:55:01;6.78;;;1.80;;
68803;SDS011;55787;52.678;13.314;2023-09-19T03:57:29;6.30;;;1.73;;
68803;SDS011;55787;52.678;13.314;2023-09-19T03:59:56;8.82;;;2.25;;
68803;SDS011;55787;52.678;13.314;2023-09-19T04:02:23;9.18;;;2.20;;
68803;SDS011;55787;52.678;13.314;2023-09-19T04:04:51;9.27;;;2.75;;
68803;SDS011;55787;52.678;13.314;2023-09-19T04:07:18;8.82;;;2.50;;
68803;SDS011;55787;52.678;13.314;2023-09-19T04:09:45;9.90;;;2.70;;
68803;SDS011;55787;52.678;13.314;2023-09-19T04:12:12;7.80;;;2.70;;
68803;SDS011;55787;52.678;13.314;2023-09-19T04:14:39;9.02;;;2.08;;
68803;SDS011;55787;52.678;13.314;2023-09-19T04:17:05;8.88;;;2.00;;
68803;SDS011;55787;52.678;13.314;2023-09-19T04:19:36;8.30;;;2.22;;
68803;SDS011;55787;52.678;13.314;2023-09-19T04:22:03;7.80;;;2.00;;
68803;SDS011;55787;52.678;13.314;2023-09-19T04:24:30;10.77;;;2.63;;
68803;SDS011;55787;52.678;13.314;2023-09-19T04:26:58;8.80;;;2.33;;
68803;SDS011;55787;52.678;13.314;2023-09-19T04:29:28;9.48;;;2.40;;
68803;SDS011;55787;52.678;13.314;2023-09-19T04:31:56;8.05;;;2.08;;
68803;SDS011;55787;52.678;13.314;2023-09-19T04:34:26;8.30;;;2.10;;
68803;SDS011;55787;52.678;13.314;2023-09-19T04:36:53;8.43;;;2.20;;
68803;SDS011;55787;52.678;13.314;2023-09-19T04:39:20;8.88;;;2.20;;
68803;SDS011;55787;52.678;13.314;2023-09-19T04:41:47;8.00;;;2.05;;
68803;SDS011;55787;52.678;13.314;2023-09-19T04:44:14;8.43;;;2.95;;
68803;SDS011;55787;52.678;13.314;2023-09-19T04:46:42;8.50;;;2.20;;
68803;SDS011;55787;52.678;13.314;2023-09-19T04:49:09;8.15;;;2.20;;
68803;SDS011;55787;52.678;13.314;2023-09-19T04:51:35;7.47;;;2.10;;
68803;SDS011;55787;52.678;13.314;2023-09-19T04:54:03;9.10;;;2.33;;
68803;SDS011;55787;52.678;13.314;2023-09-19T04:56:29;7.50;;;2.05;;
68803;SDS011;55787;52.678;13.314;2023-09-19T04:58:58;9.65;;;2.10;;
68803;SDS011;55787;52.678;13.314;2023-09-19T05:01:25;7.15;;;2.20;;
68803;SDS011;55787;52.678;13.314;2023-09-19T05:03:52;7.65;;;2.40;;
68803;SDS011;55787;52.678;13.314;2023-09-19T05:06:19;8.38;;;2.25;;
68803;SDS011;55787;52.678;13.314;2023-09-19T05:08:47;7.65;;;2.03;;
68803;SDS011;55787;52.678;13.314;2023-09-19T05:11:19;7.80;;;2.10;;
68803;SDS011;55787;52.678;13.314;2023-09-19T05:13:49;7.53;;;1.88;;
68803;SDS011;55787;52.678;13.314;2023-09-19T05:16:22;8.95;;;1.80;;
68803;SDS011;55787;52.678;13.314;2023-09-19T05:18:48;6.95;;;2.10;;
68803;SDS011;55787;52.678;13.314;2023-09-19T05:21:16;8.15;;;2.10;;
68803;SDS011;55787;52.678;13.314;2023-09-19T05:23:43;7.57;;;2.70;;
68803;SDS011;55787;52.678;13.314;2023-09-19T05:26:10;8.95;;;2.58;;
68803;SDS011;55787;52.678;13.314;2023-09-19T05:28:39;9.32;;;2.72;;
68803;SDS011;55787;52.678;13.314;2023-09-19T05:31:05;9.63;;;3.25;;
68803;SDS011;55787;52.678;13.314;2023-09-19T05:33:32;7.80;;;2.80;;
68803;SDS011;55787;52.678;13.314;2023-09-19T05:35:59;8.52;;;2.70;;
68803;SDS011;55787;52.678;13.314;2023-09-19T05:38:26;8.18;;;2.20;;
68803;SDS011;55787;52.678;13.314;2023-09-19T05:40:54;8.43;;;2.20;;
68803;SDS011;55787;52.678;13.314;2023-09-19T05:43:21;10.02;;;1.90;;
68803;SDS011;55787;52.678;13.314;2023-09-19T05:45:48;8.45;;;1.80;;
68803;SDS011;55787;52.678;13.314;2023-09-19T05:48:15;6.63;;;1.75;;
68803;SDS011;55787;52.678;13.314;2023-09-19T05:50:43;7.80;;;1.70;;
68803;SDS011;55787;52.678;13.314;2023-09-19T05:53:13;7.10;;;1.90;;
68803;SDS011;55787;52.678;13.314;2023-09-19T05:55:40;8.20;;;1.75;;
68803;SDS011;55787;52.678;13.314;2023-09-19T05:58:08;8.68;;;1.80;;
68803;SDS011;55787;52.678;13.314;2023-09-19T06:00:36;6.85;;;1.65;;
68803;SDS011;55787;52.678;13.314;2023-09-19T06:03:05;8.43;;;1.90;;
68803;SDS011;55787;52.678;13.314;2023-09-19T06:05:32;7.10;;;1.70;;
68803;SDS011;55787;52.678;13.314;2023-09-19T06:07:59;7.68;;;1.83;;
68803;SDS011;55787;52.678;13.314;2023-09-19T06:10:26;6.13;;;1.50;;
68803;SDS011;55787;52.678;13.314;2023-09-19T06:12:58;7.63;;;1.85;;
68803;SDS011;55787;52.678;13.314;2023-09-19T06:15:25;8.02;;;2.03;;
68803;SDS011;55787;52.678;13.314;2023-09-19T06:17:53;6.88;;;1.67;;
68803;SDS011;55787;52.678;13.314;2023-09-19T06:20:25;7.28;;;1.60;;
68803;SDS011;55787;52.678;13.314;2023-09-19T06:22:53;7.63;;;1.75;;
68803;SDS011;55787;52.678;13.314;2023-09-19T06:25:20;6.70;;;1.40;;
68803;SDS011;55787;52.678;13.314;2023-09-19T06:27:48;6.95;;;1.50;;
68803;SDS011;55787;52.678;13.314;2023-09-19T06:30:18;8.18;;;1.95;;
68803;SDS011;55787;52.678;13.314;2023-09-19T06:32:45;7.22;;;1.63;;
68803;SDS011;55787;52.678;13.314;2023-09-19T06:35:15;8.18;;;1.60;;
68803;SDS011;55787;52.678;13.314;2023-09-19T06:37:42;8.15;;;1.58;;
68803;SDS011;55787;52.678;13.314;2023-09-19T06:40:10;6.03;;;1.38;;
68803;SDS011;55787;52.678;13.314;2023-09-19T06:42:44;7.25;;;1.80;;
68803;SDS011;55787;52.678;13.314;2023-09-19T06:45:12;9.43;;;2.00;;
68803;SDS011;55787;52.678;13.314;2023-09-19T06:47:47;6.65;;;1.70;;
68803;SDS011;55787;52.678;13.314;2023-09-19T06:50:17;6.63;;;1.90;;
68803;SDS011;55787;52.678;13.314;2023-09-19T06:52:46;7.65;;;1.73;;
68803;SDS011;55787;52.678;13.314;2023-09-19T06:55:16;9.95;;;2.55;;
68803;SDS011;55787;52.678;13.314;2023-09-19T06:57:47;8.00;;;2.00;;
68803;SDS011;55787;52.678;13.314;2023-09-19T07:00:14;9.13;;;2.33;;
68803;SDS011;55787;52.678;13.314;2023-09-19T07:02:45;9.32;;;2.63;;
68803;SDS011;55787;52.678;13.314;2023-09-19T07:05:12;8.77;;;2.10;;
68803;SDS011;55787;52.678;13.314;2023-09-19T07:07:38;8.13;;;2.13;;
68803;SDS011;55787;52.678;13.314;2023-09-19T07:10:06;7.22;;;1.90;;
68803;SDS011;55787;52.678;13.314;2023-09-19T07:12:36;7.97;;;1.80;;
68803;SDS011;55787;52.678;13.314;2023-09-19T07:15:03;6.25;;;1.60;;
68803;SDS011;55787;52.678;13.314;2023-09-19T07:17:32;6.97;;;1.90;;
68803;SDS011;55787;52.678;13.314;2023-09-19T07:19:59;6.70;;;1.80;;
68803;SDS011;55787;52.678;13.314;2023-09-19T07:22:26;6.35;;;1.70;;
68803;SDS011;55787;52.678;13.314;2023-09-19T07:24:53;6.35;;;1.90;;
68803;SDS011;55787;52.678;13.314;2023-09-19T07:27:20;8.50;;;1.90;;
68803;SDS011;55787;52.678;13.314;2023-09-19T07:29:46;7.78;;;1.80;;
68803;SDS011;55787;52.678;13.314;2023-09-19T07:32:16;6.80;;;1.80;;
68803;SDS011;55787;52.678;13.314;2023-09-19T07:34:43;7.00;;;1.70;;
68803;SDS011;55787;52.678;13.314;2023-09-19T07:37:10;6.53;;;1.65;;
68803;SDS011;55787;52.678;13.314;2023-09-19T07:39:39;6.80;;;1.50;;
68803;SDS011;55787;52.678;13.314;2023-09-19T07:42:07;7.82;;;1.60;;
68803;SDS011;55787;52.678;13.314;2023-09-19T07:44:37;6.50;;;1.65;;
68803;SDS011;55787;52.678;13.314;2023-09-19T07:47:04;9.35;;;1.80;;
68803;SDS011;55787;52.678;13.314;2023-09-19T07:49:31;6.07;;;1.50;;
68803;SDS011;55787;52.678;13.314;2023-09-19T07:51:57;7.90;;;1.67;;
68803;SDS011;55787;52.678;13.314;2023-09-19T07:54:25;6.60;;;1.70;;
68803;SDS011;55787;52.678;13.314;2023-09-19T07:56:53;7.55;;;1.25;;
68803;SDS011;55787;52.678;13.314;2023-09-19T07:59:20;6.30;;;1.50;;
68803;SDS011;55787;52.678;13.314;2023-09-19T08:01:47;8.50;;;1.83;;
68803;SDS011;55787;52.678;13.314;2023-09-19T08:04:14;7.82;;;1.90;;
68803;SDS011;55787;52.678;13.314;2023-09-19T08:06:41;7.60;;;1.65;;
68803;SDS011;55787;52.678;13.314;2023-09-19T08:09:10;7.50;;;1.60;;
68803;SDS011;55787;52.678;13.314;2023-09-19T08:11:37;6.30;;;1.90;;
68803;SDS011;55787;52.678;13.314;2023-09-19T08:14:05;8.10;;;1.80;;
68803;SDS011;55787;52.678;13.314;2023-09-19T08:16:33;6.95;;;1.70;;
68803;SDS011;55787;52.678;13.314;2023-09-19T08:19:00;6.97;;;1.80;;
68803;SDS011;55787;52.678;13.314;2023-09-19T08:21:27;7.55;;;2.05;;
68803;SDS011;55787;52.678;13.314;2023-09-19T08:23:55;7.32;;;2.00;;
68803;SDS011;55787;52.678;13.314;2023-09-19T08:26:23;10.45;;;2.08;;
68803;SDS011;55787;52.678;13.314;2023-09-19T08:28:50;15.57;;;2.40;;
68803;SDS011;55787;52.678;13.314;2023-09-19T08:31:17;7.75;;;2.47;;
68803;SDS011;55787;52.678;13.314;2023-09-19T08:33:44;7.63;;;2.60;;
68803;SDS011;55787;52.678;13.314;2023-09-19T08:36:17;7.43;;;2.30;;
68803;SDS011;55787;52.678;13.314;2023-09-19T08:38:44;10.45;;;2.92;;
68803;SDS011;55787;52.678;13.314;2023-09-19T08:41:10;6.93;;;2.80;;
68803;SDS011;55787;52.678;13.314;2023-09-19T08:43:38;7.53;;;2.40;;
68803;SDS011;55787;52.678;13.314;2023-09-19T08:49:23;8.20;;;2.00;;
68803;SDS011;55787;52.678;13.314;2023-09-19T08:51:42;7.47;;;2.58;;
68803;SDS011;55787;52.678;13.314;2023-09-19T08:54:20;7.45;;;2.42;;
68803;SDS011;55787;52.678;13.314;2023-09-19T08:56:49;7.60;;;2.10;;
68803;SDS011;55787;52.678;13.314;2023-09-19T08:59:16;7.82;;;2.05;;
68803;SDS011;55787;52.678;13.314;2023-09-19T09:01:50;8.48;;;1.85;;
68803;SDS011;55787;52.678;13.314;2023-09-19T09:04:20;7.68;;;1.83;;
68803;SDS011;55787;52.678;13.314;2023-09-19T09:06:49;7.53;;;2.13;;
68803;SDS011;55787;52.678;13.314;2023-09-19T09:09:22;6.68;;;2.30;;
68803;SDS011;55787;52.678;13.314;2023-09-19T09:11:49;9.57;;;2.25;;
68803;SDS011;55787;52.678;13.314;2023-09-19T09:14:20;9.13;;;1.90;;
68803;SDS011;55787;52.678;13.314;2023-09-19T09:16:47;7.85;;;2.42;;
68803;SDS011;55787;52.678;13.314;2023-09-19T09:19:15;7.40;;;2.13;;
68803;SDS011;55787;52.678;13.314;2023-09-19T09:21:51;6.88;;;1.70;;
68803;SDS011;55787;52.678;13.314;2023-09-19T09:24:27;7.78;;;2.30;;
68803;SDS011;55787;52.678;13.314;2023-09-19T09:26:56;8.48;;;2.40;;
68803;SDS011;55787;52.678;13.314;2023-09-19T09:29:40;8.23;;;2.65;;
68803;SDS011;55787;52.678;13.314;2023-09-19T09:32:29;7.35;;;2.10;;
68803;SDS011;55787;52.678;13.314;2023-09-19T09:35:00;7.15;;;2.30;;
68803;SDS011;55787;52.678;13.314;2023-09-19T09:37:28;9.20;;;2.70;;
68803;SDS011;55787;52.678;13.314;2023-09-19T09:40:01;7.68;;;2.50;;
68803;SDS011;55787;52.678;13.314;2023-09-19T09:42:40;8.77;;;2.85;;
68803;SDS011;55787;52.678;13.314;2023-09-19T09:47:45;9.38;;;2.65;;
68803;SDS011;55787;52.678;13.314;2023-09-19T09:50:23;7.60;;;2.10;;
68803;SDS011;55787;52.678;13.314;2023-09-19T09:52:56;7.30;;;2.22;;
68803;SDS011;55787;52.678;13.314;2023-09-19T09:55:56;7.88;;;2.88;;
68803;SDS011;55787;52.678;13.314;2023-09-19T09:58:26;7.72;;;2.35;;
68803;SDS011;55787;52.678;13.314;2023-09-19T10:00:57;7.47;;;2.70;;
68803;SDS011;55787;52.678;13.314;2023-09-19T10:03:44;8.57;;;2.65;;
68803;SDS011;55787;52.678;13.314;2023-09-19T10:06:12;8.07;;;3.08;;
68803;SDS011;55787;52.678;13.314;2023-09-19T10:12:05;8.18;;;3.10;;
68803;SDS011;55787;52.678;13.314;2023-09-19T10:14:35;8.27;;;3.70;;
68803;SDS011;55787;52.678;13.314;2023-09-19T10:17:04;9.15;;;2.83;;
68803;SDS011;55787;52.678;13.314;2023-09-19T10:22:26;9.57;;;3.10;;
68803;SDS011;55787;52.678;13.314;2023-09-19T10:24:57;6.75;;;2.58;;
68803;SDS011;55787;52.678;13.314;2023-09-19T10:27:28;9.02;;;2.95;;
68803;SDS011;55787;52.678;13.314;2023-09-19T10:29:55;8.52;;;2.90;;
68803;SDS011;55787;52.678;13.314;2023-09-19T10:32:25;8.27;;;2.60;;
68803;SDS011;55787;52.678;13.314;2023-09-19T10:34:54;8.50;;;2.58;;
68803;SDS011;55787;52.678;13.314;2023-09-19T10:37:22;8.00;;;2.60;;
68803;SDS011;55787;52.678;13.314;2023-09-19T10:39:52;7.88;;;2.40;;
68803;SDS011;55787;52.678;13.314;2023-09-19T10:42:21;8.85;;;2.30;;
68803;SDS011;55787;52.678;13.314;2023-09-19T10:44:54;9.35;;;2.83;;
68803;SDS011;55787;52.678;13.314;2023-09-19T10:47:26;8.07;;;2.78;;
68803;SDS011;55787;52.678;13.314;2023-09-19T10:49:53;8.48;;;2.83;;
68803;SDS011;55787;52.678;13.314;2023-09-19T10:52:21;8.20;;;2.80;;
68803;SDS011;55787;52.678;13.314;2023-09-19T10:54:51;8.27;;;2.30;;
68803;SDS011;55787;52.678;13.314;2023-09-19T10:57:23;9.10;;;2.40;;
68803;SDS011;55787;52.678;13.314;2023-09-19T11:00:03;7.80;;;2.22;;
68803;SDS011;55787;52.678;13.314;2023-09-19T11:05:59;7.93;;;2.83;;
68803;SDS011;55787;52.678;13.314;2023-09-19T11:08:52;9.80;;;2.55;;
68803;SDS011;55787;52.678;13.314;2023-09-19T11:11:39;8.27;;;2.38;;
68803;SDS011;55787;52.678;13.314;2023-09-19T11:17:29;8.30;;;2.50;;
68803;SDS011;55787;52.678;13.314;2023-09-19T11:30:35;8.80;;;2.10;;
68803;SDS011;55787;52.678;13.314;2023-09-19T11:33:20;7.60;;;1.95;;
68803;SDS011;55787;52.678;13.314;2023-09-19T11:35:58;7.55;;;2.13;;
68803;SDS011;55787;52.678;13.314;2023-09-19T11:46:30;9.05;;;2.10;;
68803;SDS011;55787;52.678;13.314;2023-09-19T11:49:08;8.18;;;1.80;;
68803;SDS011;55787;52.678;13.314;2023-09-19T11:51:56;5.97;;;1.40;;
68803;SDS011;55787;52.678;13.314;2023-09-19T11:54:23;8.77;;;1.98;;
68803;SDS011;55787;52.678;13.314;2023-09-19T11:56:54;8.10;;;1.40;;
68803;SDS011;55787;52.678;13.314;2023-09-19T11:59:21;7.28;;;1.85;;
68803;SDS011;55787;52.678;13.314;2023-09-19T12:01:53;8.80;;;1.80;;
68803;SDS011;55787;52.678;13.314;2023-09-19T12:04:34;6.80;;;1.38;;
68803;SDS011;55787;52.678;13.314;2023-09-19T12:07:05;8.73;;;1.85;;
68803;SDS011;55787;52.678;13.314;2023-09-19T12:09:40;7.53;;;1.70;;
68803;SDS011;55787;52.678;13.314;2023-09-19T12:12:19;9.10;;;1.55;;
68803;SDS011;55787;52.678;13.314;2023-09-19T12:14:48;7.10;;;1.58;;
68803;SDS011;55787;52.678;13.314;2023-09-19T12:17:15;8.40;;;1.50;;
68803;SDS011;55787;52.678;13.314;2023-09-19T12:19:51;8.25;;;1.50;;
68803;SDS011;55787;52.678;13.314;2023-09-19T12:22:18;8.95;;;1.67;;
68803;SDS011;55787;52.678;13.314;2023-09-19T12:24:47;8.07;;;1.80;;
68803;SDS011;55787;52.678;13.314;2023-09-19T12:27:14;8.20;;;1.30;;
68803;SDS011;55787;52.678;13.314;2023-09-19T12:29:48;8.40;;;1.52;;
68803;SDS011;55787;52.678;13.314;2023-09-19T12:32:16;7.95;;;1.38;;
68803;SDS011;55787;52.678;13.314;2023-09-19T12:34:52;7.60;;;1.42;;
68803;SDS011;55787;52.678;13.314;2023-09-19T12:37:20;9.02;;;1.73;;
68803;SDS011;55787;52.678;13.314;2023-09-19T12:39:51;7.82;;;1.42;;
68803;SDS011;55787;52.678;13.314;2023-09-19T12:42:24;8.05;;;1.30;;
68803;SDS011;55787;52.678;13.314;2023-09-19T12:44:58;6.75;;;1.38;;
68803;SDS011;55787;52.678;13.314;2023-09-19T12:47:27;8.40;;;1.30;;
68803;SDS011;55787;52.678;13.314;2023-09-19T12:52:49;6.35;;;1.38;;
68803;SDS011;55787;52.678;13.314;2023-09-19T12:55:23;7.97;;;1.30;;
68803;SDS011;55787;52.678;13.314;2023-09-19T12:57:58;8.52;;;1.40;;
68803;SDS011;55787;52.678;13.314;2023-09-19T13:00:37;7.72;;;1.23;;
68803;SDS011;55787;52.678;13.314;2023-09-19T13:05:49;6.32;;;1.20;;
68803;SDS011;55787;52.678;13.314;2023-09-19T13:08:35;6.75;;;1.00;;
68803;SDS011;55787;52.678;13.314;2023-09-19T13:11:16;5.50;;;0.90;;
68803;SDS011;55787;52.678;13.314;2023-09-19T13:13:49;9.27;;;1.45;;
68803;SDS011;55787;52.678;13.314;2023-09-19T13:16:21;7.10;;;1.02;;
68803;SDS011;55787;52.678;13.314;2023-09-19T13:18:50;6.30;;;0.90;;
68803;SDS011;55787;52.678;13.314;2023-09-19T13:21:27;6.13;;;0.90;;
68803;SDS011;55787;52.678;13.314;2023-09-19T13:26:45;7.18;;;1.10;;
68803;SDS011;55787;52.678;13.314;2023-09-19T13:29:12;5.53;;;1.10;;
68803;SDS011;55787;52.678;13.314;2023-09-19T13:31:39;6.97;;;1.20;;
68803;SDS011;55787;52.678;13.314;2023-09-19T13:34:08;7.53;;;1.00;;
68803;SDS011;55787;52.678;13.314;2023-09-19T13:36:34;7.47;;;1.60;;
68803;SDS011;55787;52.678;13.314;2023-09-19T13:39:01;6.90;;;1.05;;
68803;SDS011;55787;52.678;13.314;2023-09-19T13:41:28;6.25;;;0.70;;
68803;SDS011;55787;52.678;13.314;2023-09-19T13:43:55;7.35;;;1.40;;
68803;SDS011;55787;52.678;13.314;2023-09-19T13:46:23;8.38;;;1.10;;
68803;SDS011;55787;52.678;13.314;2023-09-19T13:48:52;6.25;;;1.08;;
68803;SDS011;55787;52.678;13.314;2023-09-19T13:51:22;6.72;;;0.90;;
68803;SDS011;55787;52.678;13.314;2023-09-19T13:53:49;6.68;;;1.10;;
68803;SDS011;55787;52.678;13.314;2023-09-19T13:56:16;6.50;;;1.13;;
68803;SDS011;55787;52.678;13.314;2023-09-19T13:58:43;6.72;;;1.02;;
68803;SDS011;55787;52.678;13.314;2023-09-19T14:01:10;8.90;;;1.40;;
68803;SDS011;55787;52.678;13.314;2023-09-19T14:03:39;6.20;;;0.75;;
68803;SDS011;55787;52.678;13.314;2023-09-19T14:06:06;7.28;;;0.90;;
68803;SDS011;55787;52.678;13.314;2023-09-19T14:08:33;7.10;;;0.93;;
68803;SDS011;55787;52.678;13.314;2023-09-19T14:11:05;8.05;;;1.15;;
68803;SDS011;55787;52.678;13.314;2023-09-19T14:13:32;7.20;;;1.02;;
68803;SDS011;55787;52.678;13.314;2023-09-19T14:16:03;6.32;;;1.15;;
68803;SDS011;55787;52.678;13.314;2023-09-19T14:18:31;7.75;;;1.23;;
68803;SDS011;55787;52.678;13.314;2023-09-19T14:21:01;7.75;;;0.85;;
68803;SDS011;55787;52.678;13.314;2023-09-19T14:23:36;8.35;;;1.05;;
68803;SDS011;55787;52.678;13.314;2023-09-19T14:26:04;8.15;;;1.38;;
68803;SDS011;55787;52.678;13.314;2023-09-19T14:28:33;8.38;;;1.20;;
68803;SDS011;55787;52.678;13.314;2023-09-19T14:31:04;8.30;;;1.00;;
68803;SDS011;55787;52.678;13.314;2023-09-19T14:33:34;6.68;;;1.13;;
68803;SDS011;55787;52.678;13.314;2023-09-19T14:36:04;7.50;;;1.42;;
68803;SDS011;55787;52.678;13.314;2023-09-19T14:38:33;6.47;;;0.77;;
68803;SDS011;55787;52.678;13.314;2023-09-19T14:41:00;6.72;;;0.90;;
68803;SDS011;55787;52.678;13.314;2023-09-19T14:43:28;8.02;;;1.20;;
68803;SDS011;55787;52.678;13.314;2023-09-19T14:45:56;8.52;;;1.15;;
68803;SDS011;55787;52.678;13.314;2023-09-19T14:48:26;7.90;;;1.20;;
68803;SDS011;55787;52.678;13.314;2023-09-19T14:50:52;7.38;;;1.10;;
68803;SDS011;55787;52.678;13.314;2023-09-19T14:53:19;7.00;;;1.30;;
68803;SDS011;55787;52.678;13.314;2023-09-19T14:55:46;6.75;;;1.10;;
68803;SDS011;55787;52.678;13.314;2023-09-19T14:58:14;6.22;;;1.20;;
68803;SDS011;55787;52.678;13.314;2023-09-19T15:00:40;7.65;;;1.17;;
68803;SDS011;55787;52.678;13.314;2023-09-19T15:03:07;8.05;;;1.30;;
68803;SDS011;55787;52.678;13.314;2023-09-19T15:05:34;9.68;;;1.23;;
68803;SDS011;55787;52.678;13.314;2023-09-19T15:08:01;8.73;;;1.35;;
68803;SDS011;55787;52.678;13.314;2023-09-19T15:10:29;5.82;;;1.13;;
68803;SDS011;55787;52.678;13.314;2023-09-19T15:12:56;7.40;;;1.10;;
68803;SDS011;55787;52.678;13.314;2023-09-19T15:15:23;6.57;;;1.60;;
68803;SDS011;55787;52.678;13.314;2023-09-19T15:17:50;7.10;;;1.13;;
68803;SDS011;55787;52.678;13.314;2023-09-19T15:20:16;6.57;;;0.95;;
68803;SDS011;55787;52.678;13.314;2023-09-19T15:22:44;7.53;;;1.23;;
68803;SDS011;55787;52.678;13.314;2023-09-19T15:25:10;6.70;;;1.25;;
68803;SDS011;55787;52.678;13.314;2023-09-19T15:27:37;7.57;;;1.30;;
68803;SDS011;55787;52.678;13.314;2023-09-19T15:30:04;7.63;;;1.25;;
68803;SDS011;55787;52.678;13.314;2023-09-19T15:32:31;8.52;;;1.30;;
68803;SDS011;55787;52.678;13.314;2023-09-19T15:34:58;6.70;;;1.20;;
68803;SDS011;55787;52.678;13.314;2023-09-19T15:37:25;8.95;;;1.15;;
68803;SDS011;55787;52.678;13.314;2023-09-19T15:39:52;5.45;;;1.10;;
68803;SDS011;55787;52.678;13.314;2023-09-19T15:42:19;5.72;;;1.00;;
68803;SDS011;55787;52.678;13.314;2023-09-19T15:44:46;6.38;;;0.90;;
68803;SDS011;55787;52.678;13.314;2023-09-19T15:47:14;6.28;;;1.05;;